Time,TemperatureF,DewpointF,PressureIn,WindDirection,WindDirectionDegrees,WindSpeedMPH,WindSpeedGustMPH,Humidity,HourlyPrecipIn,Conditions,Clouds,dailyrainin,SoftwareType,DateUTC
2013-04-04 00:00:00,46.6,29.9,30.28,NNE,25,0.0,0.0,52,0.00,,---,0.00,VWS V14.01,2013-04-04 04:00:00,
2013-04-04 00:02:00,46.6,29.9,30.28,NNE,25,0.0,0.0,52,0.00,,---,0.00,VWS V14.01,2013-04-04 04:02:00,
2013-04-04 00:07:00,46.5,30.3,30.28,NNE,25,0.0,0.0,53,0.00,,---,0.00,VWS V14.01,2013-04-04 04:07:00,
2013-04-04 00:12:00,46.5,30.3,30.28,NNE,25,0.0,0.0,53,0.00,,---,0.00,VWS V14.01,2013-04-04 04:12:00,
2013-04-04 00:17:00,46.4,27.8,30.27,NNE,25,0.0,1.0,48,0.00,,---,0.00,VWS V14.01,2013-04-04 04:17:00,
2013-04-04 00:22:00,46.8,28.7,30.27,NNE,25,0.0,1.0,49,0.00,,---,0.00,VWS V14.01,2013-04-04 04:22:00,
2013-04-04 00:27:00,46.8,26.6,30.27,NNE,25,1.0,1.0,45,0.00,,---,0.00,VWS V14.01,2013-04-04 04:27:00,
2013-04-04 00:30:00,47.2,24.7,30.27,NNE,25,0.0,1.0,41,0.00,,---,0.00,VWS V14.01,2013-04-04 04:30:00,
2013-04-04 00:32:00,47.5,25.6,30.27,NNE,23,1.0,2.0,42,0.00,,---,0.00,VWS V14.01,2013-04-04 04:32:00,
2013-04-04 00:37:00,47.5,27.8,30.27,NNE,23,1.0,2.0,46,0.00,,---,0.00,VWS V14.01,2013-04-04 04:37:00,
2013-04-04 00:42:00,47.5,27.8,30.27,NNE,23,0.0,2.0,46,0.00,,---,0.00,VWS V14.01,2013-04-04 04:42:00,
2013-04-04 00:48:00,47.4,30.2,30.27,NNE,23,0.0,2.0,51,0.00,,---,0.00,VWS V14.01,2013-04-04 04:48:00,
2013-04-04 00:53:00,47.1,30.4,30.27,NNE,23,1.0,2.0,52,0.00,,---,0.00,VWS V14.01,2013-04-04 04:53:00,
2013-04-04 00:58:00,46.8,31.0,30.28,NNE,23,0.0,2.0,54,0.00,,---,0.00,VWS V14.01,2013-04-04 04:58:00,
2013-04-04 01:00:00,46.6,31.8,30.28,NNE,23,1.0,2.0,56,0.00,,---,0.00,VWS V14.01,2013-04-04 05:00:00,
2013-04-04 01:03:00,46.3,30.1,30.28,NNE,23,0.0,1.0,53,0.00,,---,0.00,VWS V14.01,2013-04-04 05:03:00,
2013-04-04 01:08:00,46.0,31.2,30.27,NNE,23,0.0,1.0,56,0.00,,---,0.00,VWS V14.01,2013-04-04 05:08:00,
2013-04-04 01:13:00,45.7,30.5,30.28,NNE,23,0.0,1.0,55,0.00,,---,0.00,VWS V14.01,2013-04-04 05:13:00,
2013-04-04 01:18:00,45.5,30.7,30.27,NNE,23,0.0,1.0,56,0.00,,---,0.00,VWS V14.01,2013-04-04 05:18:00,
2013-04-04 01:23:00,45.3,30.1,30.29,NE,36,11.0,17.0,55,0.00,,---,0.00,VWS V14.01,2013-04-04 05:23:00,
2013-04-04 01:29:00,45.6,26.0,30.29,NNE,21,10.0,17.0,46,0.00,,---,0.00,VWS V14.01,2013-04-04 05:29:00,
2013-04-04 01:30:00,45.6,25.5,30.29,NNE,32,5.0,17.0,45,0.00,,---,0.00,VWS V14.01,2013-04-04 05:30:00,
2013-04-04 01:34:00,45.4,25.3,30.29,ENE,78,5.0,10.0,45,0.00,,---,0.00,VWS V14.01,2013-04-04 05:34:00,
2013-04-04 01:39:00,45.1,25.0,30.29,North,8,3.0,13.0,45,0.00,,---,0.00,VWS V14.01,2013-04-04 05:39:00,
2013-04-04 01:44:00,44.8,24.8,30.29,NE,56,3.0,13.0,45,0.00,,---,0.00,VWS V14.01,2013-04-04 05:44:00,
2013-04-04 01:49:00,44.7,24.7,30.29,ESE,105,2.0,13.0,45,0.00,,---,0.00,VWS V14.01,2013-04-04 05:49:00,
2013-04-04 01:54:00,44.5,24.5,30.29,NE,46,4.0,13.0,45,0.00,,---,0.00,VWS V14.01,2013-04-04 05:54:00,
2013-04-04 01:59:00,44.4,24.4,30.29,ENE,70,4.0,13.0,45,0.00,,---,0.00,VWS V14.01,2013-04-04 05:59:00,
2013-04-04 02:00:00,44.4,24.4,30.29,ENE,70,2.0,13.0,45,0.00,,---,0.00,VWS V14.01,2013-04-04 06:00:00,
2013-04-04 02:04:00,44.3,24.3,30.29,ENE,70,4.0,9.0,45,0.00,,---,0.00,VWS V14.01,2013-04-04 06:04:00,
2013-04-04 02:10:00,44.3,23.8,30.29,East,89,1.0,11.0,44,0.00,,---,0.00,VWS V14.01,2013-04-04 06:10:00,
2013-04-04 02:15:00,44.3,24.3,30.29,NE,56,3.0,11.0,45,0.00,,---,0.00,VWS V14.01,2013-04-04 06:15:00,
2013-04-04 02:20:00,44.2,23.7,30.29,ENE,62,1.0,11.0,44,0.00,,---,0.00,VWS V14.01,2013-04-04 06:20:00,
2013-04-04 02:25:00,44.1,23.6,30.29,ENE,70,3.0,11.0,44,0.00,,---,0.00,VWS V14.01,2013-04-04 06:25:00,
2013-04-04 02:30:00,44.1,23.6,30.29,NE,37,3.0,11.0,44,0.00,,---,0.00,VWS V14.01,2013-04-04 06:30:00,
2013-04-04 02:35:00,44.0,23.5,30.29,North,354,0.0,9.0,44,0.00,,---,0.00,VWS V14.01,2013-04-04 06:35:00,
2013-04-04 02:40:00,43.9,23.4,30.29,NE,56,2.0,9.0,44,0.00,,---,0.00,VWS V14.01,2013-04-04 06:40:00,
2013-04-04 02:45:00,43.8,23.9,30.29,NE,46,1.0,9.0,45,0.00,,---,0.00,VWS V14.01,2013-04-04 06:45:00,
2013-04-04 02:50:00,43.7,23.8,30.28,NE,51,0.0,9.0,45,0.00,,---,0.00,VWS V14.01,2013-04-04 06:50:00,
2013-04-04 02:55:00,43.5,23.6,30.28,East,95,1.0,9.0,45,0.00,,---,0.00,VWS V14.01,2013-04-04 06:55:00,
2013-04-04 03:00:00,43.4,24.0,30.28,NE,54,2.0,3.0,46,0.00,,---,0.00,VWS V14.01,2013-04-04 07:00:00,
2013-04-04 03:05:00,43.3,24.4,30.28,NE,49,2.0,6.0,47,0.00,,---,0.00,VWS V14.01,2013-04-04 07:05:00,
2013-04-04 03:10:00,43.2,24.4,30.29,NE,39,2.0,7.0,47,0.00,,---,0.00,VWS V14.01,2013-04-04 07:10:00,
2013-04-04 03:16:00,43.1,24.8,30.29,ENE,63,4.0,7.0,48,0.00,,---,0.00,VWS V14.01,2013-04-04 07:16:00,
2013-04-04 03:21:00,43.1,25.3,30.29,NE,51,2.0,7.0,49,0.00,,---,0.00,VWS V14.01,2013-04-04 07:21:00,
2013-04-04 03:26:00,42.9,26.0,30.30,East,84,1.0,7.0,51,0.00,,---,0.00,VWS V14.01,2013-04-04 07:26:00,
2013-04-04 03:30:00,42.8,26.4,30.30,NNE,17,5.0,7.0,52,0.00,,---,0.00,VWS V14.01,2013-04-04 07:30:00,
2013-04-04 03:31:00,42.8,26.9,30.30,NE,48,3.0,5.0,53,0.00,,---,0.00,VWS V14.01,2013-04-04 07:31:00,
2013-04-04 03:36:00,42.7,27.7,30.31,NNE,30,5.0,9.0,55,0.00,,---,0.00,VWS V14.01,2013-04-04 07:36:00,
2013-04-04 03:41:00,42.6,28.0,30.30,East,89,4.0,9.0,56,0.00,,---,0.00,VWS V14.01,2013-04-04 07:41:00,
2013-04-04 03:46:00,42.5,28.8,30.30,NE,54,1.0,9.0,58,0.00,,---,0.00,VWS V14.01,2013-04-04 07:46:00,
2013-04-04 03:51:00,42.4,29.1,30.30,ENE,58,3.0,9.0,59,0.00,,---,0.00,VWS V14.01,2013-04-04 07:51:00,
2013-04-04 03:56:00,42.3,29.8,30.30,East,84,4.0,9.0,61,0.00,,---,0.00,VWS V14.01,2013-04-04 07:56:00,
2013-04-04 04:00:00,42.3,30.2,30.30,SE,135,1.0,9.0,62,0.00,,---,0.00,VWS V14.01,2013-04-04 08:00:00,
2013-04-04 04:01:00,42.2,30.5,30.30,East,97,4.0,4.0,63,0.00,,---,0.00,VWS V14.01,2013-04-04 08:01:00,
2013-04-04 04:07:00,42.2,30.9,30.30,ENE,60,2.0,5.0,64,0.00,,---,0.00,VWS V14.01,2013-04-04 08:07:00,
2013-04-04 04:12:00,42.1,31.2,30.30,East,80,2.0,5.0,65,0.00,,---,0.00,VWS V14.01,2013-04-04 08:12:00,
2013-04-04 04:17:00,42.0,31.5,30.30,East,94,1.0,5.0,66,0.00,,---,0.00,VWS V14.01,2013-04-04 08:17:00,
2013-04-04 04:22:00,41.9,31.4,30.30,ENE,58,0.0,5.0,66,0.00,,---,0.00,VWS V14.01,2013-04-04 08:22:00,
2013-04-04 04:27:00,41.8,31.3,30.31,ENE,61,5.0,5.0,66,0.00,,---,0.00,VWS V14.01,2013-04-04 08:27:00,
2013-04-04 04:30:00,41.8,31.7,30.31,ENE,62,2.0,5.0,67,0.00,,---,0.00,VWS V14.01,2013-04-04 08:30:00,
2013-04-04 04:32:00,41.8,31.3,30.30,ENE,75,0.0,3.0,66,0.00,,---,0.00,VWS V14.01,2013-04-04 08:32:00,
2013-04-04 04:37:00,41.9,31.4,30.31,East,86,1.0,4.0,66,0.00,,---,0.00,VWS V14.01,2013-04-04 08:37:00,
2013-04-04 04:42:00,41.9,31.4,30.30,East,82,4.0,5.0,66,0.00,,---,0.00,VWS V14.01,2013-04-04 08:42:00,
2013-04-04 04:47:00,41.9,31.0,30.31,East,97,3.0,5.0,65,0.00,,---,0.00,VWS V14.01,2013-04-04 08:47:00,
2013-04-04 04:52:00,41.9,31.0,30.31,East,89,2.0,5.0,65,0.00,,---,0.00,VWS V14.01,2013-04-04 08:52:00,
2013-04-04 04:57:00,41.9,31.0,30.31,East,101,3.0,5.0,65,0.00,,---,0.00,VWS V14.01,2013-04-04 08:57:00,
2013-04-04 05:00:00,41.9,31.0,30.31,East,90,1.0,5.0,65,0.00,,---,0.00,VWS V14.01,2013-04-04 09:00:00,
2013-04-04 05:02:00,41.9,31.0,30.31,ENE,78,2.0,4.0,65,0.00,,---,0.00,VWS V14.01,2013-04-04 09:02:00,
2013-04-04 05:07:00,41.9,30.6,30.31,NE,48,4.0,8.0,64,0.00,,---,0.00,VWS V14.01,2013-04-04 09:07:00,
2013-04-04 05:13:00,41.8,30.5,30.31,East,80,1.0,8.0,64,0.00,,---,0.00,VWS V14.01,2013-04-04 09:13:00,
2013-04-04 05:18:00,41.8,30.5,30.31,NE,53,1.0,8.0,64,0.00,,---,0.00,VWS V14.01,2013-04-04 09:18:00,
2013-04-04 05:23:00,41.7,30.4,30.31,East,79,1.0,8.0,64,0.00,,---,0.00,VWS V14.01,2013-04-04 09:23:00,
2013-04-04 05:28:00,41.6,30.3,30.31,NNE,20,2.0,8.0,64,0.00,,---,0.00,VWS V14.01,2013-04-04 09:28:00,
2013-04-04 05:30:00,41.6,30.3,30.31,NE,51,1.0,8.0,64,0.00,,---,0.00,VWS V14.01,2013-04-04 09:30:00,
2013-04-04 05:33:00,41.5,30.2,30.32,NNE,18,3.0,3.0,64,0.00,,---,0.00,VWS V14.01,2013-04-04 09:33:00,
2013-04-04 05:38:00,41.5,30.2,30.33,NE,37,2.0,5.0,64,0.00,,---,0.00,VWS V14.01,2013-04-04 09:38:00,
2013-04-04 05:43:00,41.4,30.1,30.32,ENE,74,2.0,6.0,64,0.00,,---,0.00,VWS V14.01,2013-04-04 09:43:00,
2013-04-04 05:49:00,41.3,30.1,30.32,ENE,61,2.0,6.0,64,0.00,,---,0.00,VWS V14.01,2013-04-04 09:49:00,
2013-04-04 05:54:00,41.1,29.9,30.32,ENE,67,2.0,6.0,64,0.00,,---,0.00,VWS V14.01,2013-04-04 09:54:00,
2013-04-04 05:59:00,40.9,29.7,30.32,NE,51,1.0,6.0,64,0.00,,---,0.00,VWS V14.01,2013-04-04 09:59:00,
2013-04-04 06:00:00,40.9,29.7,30.32,East,82,2.0,6.0,64,0.00,,---,0.00,VWS V14.01,2013-04-04 10:00:00,
2013-04-04 06:04:00,40.8,29.6,30.32,ENE,68,2.0,5.0,64,0.00,,---,0.00,VWS V14.01,2013-04-04 10:04:00,
2013-04-04 06:09:00,40.7,29.5,30.32,ENE,65,0.0,5.0,64,0.00,,---,0.00,VWS V14.01,2013-04-04 10:09:00,
2013-04-04 06:14:00,40.6,29.4,30.32,East,86,2.0,5.0,64,0.00,,---,0.00,VWS V14.01,2013-04-04 10:14:00,
2013-04-04 06:20:00,40.5,29.7,30.33,East,95,2.0,5.0,65,0.00,,---,0.00,VWS V14.01,2013-04-04 10:20:00,
2013-04-04 06:25:00,40.4,29.2,30.33,East,81,1.0,5.0,64,0.00,,---,0.00,VWS V14.01,2013-04-04 10:25:00,
2013-04-04 06:30:00,40.4,29.2,30.33,ENE,68,2.0,5.0,64,0.00,,---,0.00,VWS V14.01,2013-04-04 10:30:00,
2013-04-04 06:35:00,40.3,29.1,30.33,ENE,78,2.0,2.0,64,0.00,,---,0.00,VWS V14.01,2013-04-04 10:35:00,
2013-04-04 06:40:00,40.3,29.1,30.33,NNE,22,4.0,6.0,64,0.00,,---,0.00,VWS V14.01,2013-04-04 10:40:00,
2013-04-04 06:45:00,40.2,29.0,30.33,East,93,0.0,6.0,64,0.00,,---,0.00,VWS V14.01,2013-04-04 10:45:00,
2013-04-04 06:50:00,40.2,29.0,30.33,East,90,0.0,6.0,64,0.00,,---,0.00,VWS V14.01,2013-04-04 10:50:00,
2013-04-04 06:55:00,40.0,28.8,30.33,East,98,1.0,6.0,64,0.00,,---,0.00,VWS V14.01,2013-04-04 10:55:00,
2013-04-04 07:00:00,40.0,28.8,30.33,East,80,5.0,5.0,64,0.00,,---,0.00,VWS V14.01,2013-04-04 11:00:00,
2013-04-04 07:05:00,39.9,28.3,30.33,ENE,71,2.0,5.0,63,0.00,,---,0.00,VWS V14.01,2013-04-04 11:05:00,
2013-04-04 07:11:00,39.7,28.5,30.33,East,89,3.0,5.0,64,0.00,,---,0.00,VWS V14.01,2013-04-04 11:11:00,
2013-04-04 07:16:00,39.6,28.4,30.33,NNE,27,1.0,5.0,64,0.00,,---,0.00,VWS V14.01,2013-04-04 11:16:00,
2013-04-04 07:21:00,39.5,28.4,30.34,East,82,3.0,6.0,64,0.00,,---,0.00,VWS V14.01,2013-04-04 11:21:00,
2013-04-04 07:26:00,39.5,28.4,30.34,East,89,1.0,6.0,64,0.00,,---,0.00,VWS V14.01,2013-04-04 11:26:00,
2013-04-04 07:30:00,39.4,28.2,30.35,ENE,57,2.0,6.0,64,0.00,,---,0.00,VWS V14.01,2013-04-04 11:30:00,
2013-04-04 07:31:00,39.4,28.2,30.34,NE,47,2.0,5.0,64,0.00,,---,0.00,VWS V14.01,2013-04-04 11:31:00,
2013-04-04 07:36:00,39.4,28.2,30.35,East,89,4.0,5.0,64,0.00,,---,0.00,VWS V14.01,2013-04-04 11:36:00,
2013-04-04 07:41:00,39.4,28.2,30.34,ESE,103,1.0,5.0,64,0.00,,---,0.00,VWS V14.01,2013-04-04 11:41:00,
2013-04-04 07:46:00,39.5,28.4,30.35,ESE,121,1.0,5.0,64,0.00,,---,0.00,VWS V14.01,2013-04-04 11:46:00,
2013-04-04 07:52:00,39.5,28.4,30.35,ENE,58,2.0,5.0,64,0.00,,---,0.00,VWS V14.01,2013-04-04 11:52:00,
2013-04-04 07:57:00,39.7,28.5,30.35,SE,146,1.0,5.0,64,0.00,,---,0.00,VWS V14.01,2013-04-04 11:57:00,
2013-04-04 08:00:00,39.8,28.2,30.35,East,95,3.0,5.0,63,0.00,,---,0.00,VWS V14.01,2013-04-04 12:00:00,
2013-04-04 08:02:00,40.0,28.4,30.35,East,96,5.0,5.0,63,0.00,,---,0.00,VWS V14.01,2013-04-04 12:02:00,
2013-04-04 08:07:00,40.2,28.2,30.36,ESE,106,1.0,6.0,62,0.00,,---,0.00,VWS V14.01,2013-04-04 12:07:00,
2013-04-04 08:12:00,40.5,28.1,30.36,ENE,68,1.0,6.0,61,0.00,,---,0.00,VWS V14.01,2013-04-04 12:12:00,
2013-04-04 08:17:00,40.6,27.8,30.36,East,91,3.0,7.0,60,0.00,,---,0.00,VWS V14.01,2013-04-04 12:17:00,
2013-04-04 08:22:00,40.7,27.9,30.36,ENE,76,2.0,7.0,60,0.00,,---,0.00,VWS V14.01,2013-04-04 12:22:00,
2013-04-04 08:27:00,40.9,28.1,30.35,ENE,71,2.0,7.0,60,0.00,,---,0.00,VWS V14.01,2013-04-04 12:27:00,
2013-04-04 08:30:00,41.2,28.0,30.35,NE,46,2.0,7.0,59,0.00,,---,0.00,VWS V14.01,2013-04-04 12:30:00,
2013-04-04 08:32:00,41.3,28.1,30.36,East,79,2.0,4.0,59,0.00,,---,0.00,VWS V14.01,2013-04-04 12:32:00,
2013-04-04 08:37:00,41.5,27.8,30.36,East,86,1.0,4.0,58,0.00,,---,0.00,VWS V14.01,2013-04-04 12:37:00,
2013-04-04 08:42:00,41.7,27.6,30.36,East,90,3.0,8.0,57,0.00,,---,0.00,VWS V14.01,2013-04-04 12:42:00,
2013-04-04 08:48:00,41.5,27.4,30.35,NE,54,4.0,8.0,57,0.00,,---,0.00,VWS V14.01,2013-04-04 12:48:00,
2013-04-04 08:53:00,41.7,27.6,30.35,ENE,77,3.0,8.0,57,0.00,,---,0.00,VWS V14.01,2013-04-04 12:53:00,
2013-04-04 08:58:00,42.0,27.5,30.35,East,82,2.0,8.0,56,0.00,,---,0.00,VWS V14.01,2013-04-04 12:58:00,
2013-04-04 09:00:00,42.2,27.6,30.35,ENE,68,2.0,8.0,56,0.00,,---,0.00,VWS V14.01,2013-04-04 13:00:00,
2013-04-04 09:03:00,42.3,27.3,30.35,East,88,5.0,6.0,55,0.00,,---,0.00,VWS V14.01,2013-04-04 13:03:00,
2013-04-04 09:08:00,42.2,26.8,30.35,NE,40,3.0,9.0,54,0.00,,---,0.00,VWS V14.01,2013-04-04 13:08:00,
2013-04-04 09:13:00,42.2,26.8,30.35,East,99,2.0,9.0,54,0.00,,---,0.00,VWS V14.01,2013-04-04 13:13:00,
2013-04-04 09:18:00,42.3,27.3,30.35,East,89,3.0,9.0,55,0.00,,---,0.00,VWS V14.01,2013-04-04 13:18:00,
2013-04-04 09:23:00,42.2,26.8,30.34,ENE,67,4.0,9.0,54,0.00,,---,0.00,VWS V14.01,2013-04-04 13:23:00,
2013-04-04 09:28:00,42.3,26.9,30.34,ENE,77,5.0,9.0,54,0.00,,---,0.00,VWS V14.01,2013-04-04 13:28:00,
2013-04-04 09:30:00,42.3,26.9,30.34,ESE,115,1.0,9.0,54,0.00,,---,0.00,VWS V14.01,2013-04-04 13:30:00,
2013-04-04 09:33:00,42.7,27.7,30.33,ENE,70,5.0,8.0,55,0.00,,---,0.00,VWS V14.01,2013-04-04 13:33:00,
2013-04-04 09:38:00,42.7,26.3,30.34,ESE,105,3.0,10.0,52,0.00,,---,0.00,VWS V14.01,2013-04-04 13:38:00,
2013-04-04 09:44:00,42.7,26.8,30.34,NE,40,1.0,10.0,53,0.00,,---,0.00,VWS V14.01,2013-04-04 13:44:00,
2013-04-04 09:49:00,43.0,26.6,30.34,East,91,5.0,10.0,52,0.00,,---,0.00,VWS V14.01,2013-04-04 13:49:00,
2013-04-04 09:54:00,43.1,27.1,30.34,ESE,117,1.0,10.0,53,0.00,,---,0.00,VWS V14.01,2013-04-04 13:54:00,
2013-04-04 09:59:00,43.3,26.9,30.34,ENE,64,1.0,11.0,52,0.00,,---,0.00,VWS V14.01,2013-04-04 13:59:00,
2013-04-04 10:00:00,43.2,26.8,30.34,ENE,74,4.0,11.0,52,0.00,,---,0.00,VWS V14.01,2013-04-04 14:00:00,
2013-04-04 10:04:00,43.1,26.7,30.33,ENE,66,1.0,6.0,52,0.00,,---,0.00,VWS V14.01,2013-04-04 14:04:00,
2013-04-04 10:09:00,43.3,27.3,30.33,East,86,1.0,6.0,53,0.00,,---,0.00,VWS V14.01,2013-04-04 14:09:00,
2013-04-04 10:14:00,43.3,27.3,30.33,East,84,6.0,6.0,53,0.00,,---,0.00,VWS V14.01,2013-04-04 14:14:00,
2013-04-04 10:19:00,43.1,27.1,30.33,East,80,2.0,6.0,53,0.00,,---,0.00,VWS V14.01,2013-04-04 14:19:00,
2013-04-04 10:24:00,43.1,27.6,30.32,East,89,2.0,6.0,54,0.00,,---,0.00,VWS V14.01,2013-04-04 14:24:00,
2013-04-04 10:30:00,43.3,28.2,30.33,ESE,110,1.0,6.0,55,0.00,,---,0.00,VWS V14.01,2013-04-04 14:30:00,
2013-04-04 10:35:00,43.7,28.2,30.33,ESE,103,0.0,4.0,54,0.00,,---,0.00,VWS V14.01,2013-04-04 14:35:00,
2013-04-04 10:40:00,44.2,28.6,30.33,ENE,78,0.0,4.0,54,0.00,,---,0.00,VWS V14.01,2013-04-04 14:40:00,
2013-04-04 10:45:00,44.7,28.6,30.32,East,91,2.0,5.0,53,0.00,,---,0.00,VWS V14.01,2013-04-04 14:45:00,
2013-04-04 10:50:00,44.7,28.6,30.32,East,82,3.0,9.0,53,0.00,,---,0.00,VWS V14.01,2013-04-04 14:50:00,
2013-04-04 10:55:00,44.9,28.8,30.32,East,88,4.0,9.0,53,0.00,,---,0.00,VWS V14.01,2013-04-04 14:55:00,
2013-04-04 11:00:00,44.9,28.4,30.32,East,86,2.0,4.0,52,0.00,,---,0.00,VWS V14.01,2013-04-04 15:00:00,
2013-04-04 11:05:00,45.0,28.5,30.32,East,85,5.0,8.0,52,0.00,,---,0.00,VWS V14.01,2013-04-04 15:05:00,
2013-04-04 11:10:00,45.1,29.5,30.31,ENE,63,4.0,8.0,54,0.00,,---,0.00,VWS V14.01,2013-04-04 15:10:00,
2013-04-04 11:16:00,45.3,29.2,30.31,ESE,117,3.0,8.0,53,0.00,,---,0.00,VWS V14.01,2013-04-04 15:16:00,
2013-04-04 11:21:00,45.9,29.3,30.31,East,89,3.0,8.0,52,0.00,,---,0.00,VWS V14.01,2013-04-04 15:21:00,
2013-04-04 11:26:00,45.9,28.8,30.31,ENE,60,3.0,9.0,51,0.00,,---,0.00,VWS V14.01,2013-04-04 15:26:00,
2013-04-04 11:30:00,45.6,29.0,30.31,ESE,108,2.0,9.0,52,0.00,,---,0.00,VWS V14.01,2013-04-04 15:30:00,
2013-04-04 11:31:00,45.6,29.0,30.31,ENE,70,2.0,4.0,52,0.00,,---,0.00,VWS V14.01,2013-04-04 15:31:00,
2013-04-04 11:37:00,45.7,29.1,30.31,East,96,3.0,6.0,52,0.00,,---,0.00,VWS V14.01,2013-04-04 15:37:00,
2013-04-04 11:42:00,45.6,29.0,30.30,East,91,1.0,6.0,52,0.00,,---,0.00,VWS V14.01,2013-04-04 15:42:00,
2013-04-04 11:47:00,45.6,29.0,30.30,ENE,57,4.0,6.0,52,0.00,,---,0.00,VWS V14.01,2013-04-04 15:47:00,
2013-04-04 11:52:00,45.5,29.4,30.29,East,88,2.0,6.0,53,0.00,,---,0.00,VWS V14.01,2013-04-04 15:52:00,
2013-04-04 11:57:00,45.7,30.0,30.30,SSE,149,3.0,10.0,54,0.00,,---,0.00,VWS V14.01,2013-04-04 15:57:00,
2013-04-04 12:00:00,45.8,29.2,30.29,ENE,63,3.0,10.0,52,0.00,,---,0.00,VWS V14.01,2013-04-04 16:00:00,
2013-04-04 12:02:00,45.9,29.3,30.29,ENE,71,3.0,5.0,52,0.00,,---,0.00,VWS V14.01,2013-04-04 16:02:00,
2013-04-04 12:07:00,46.1,30.4,30.28,ENE,76,1.0,5.0,54,0.00,,---,0.00,VWS V14.01,2013-04-04 16:07:00,
2013-04-04 12:12:00,46.5,29.8,30.28,ENE,76,4.0,7.0,52,0.00,,---,0.00,VWS V14.01,2013-04-04 16:12:00,
2013-04-04 12:17:00,46.8,30.1,30.28,East,85,4.0,7.0,52,0.00,,---,0.00,VWS V14.01,2013-04-04 16:17:00,
2013-04-04 12:23:00,46.8,29.6,30.28,NE,56,5.0,7.0,51,0.00,,---,0.00,VWS V14.01,2013-04-04 16:23:00,
2013-04-04 12:28:00,46.8,30.1,30.28,ENE,58,4.0,7.0,52,0.00,,---,0.00,VWS V14.01,2013-04-04 16:28:00,
2013-04-04 12:30:00,46.9,30.2,30.27,ENE,68,2.0,7.0,52,0.00,,---,0.00,VWS V14.01,2013-04-04 16:30:00,
2013-04-04 12:33:00,47.0,30.3,30.27,ENE,78,6.0,6.0,52,0.00,,---,0.00,VWS V14.01,2013-04-04 16:33:00,
2013-04-04 12:38:00,47.0,30.3,30.26,East,96,2.0,7.0,52,0.00,,---,0.00,VWS V14.01,2013-04-04 16:38:00,
2013-04-04 12:43:00,47.3,29.6,30.26,East,90,2.0,7.0,50,0.00,,---,0.00,VWS V14.01,2013-04-04 16:43:00,
2013-04-04 12:48:00,47.9,30.2,30.26,ENE,60,4.0,7.0,50,0.00,,---,0.00,VWS V14.01,2013-04-04 16:48:00,
2013-04-04 12:53:00,48.0,30.3,30.26,East,91,3.0,8.0,50,0.00,,---,0.00,VWS V14.01,2013-04-04 16:53:00,
2013-04-04 12:58:00,48.4,30.6,30.25,NE,46,2.0,8.0,50,0.00,,---,0.00,VWS V14.01,2013-04-04 16:58:00,
2013-04-04 13:00:00,48.4,30.1,30.25,ENE,58,6.0,8.0,49,0.00,,---,0.00,VWS V14.01,2013-04-04 17:00:00,
2013-04-04 13:03:00,48.1,29.9,30.25,NE,52,3.0,8.0,49,0.00,,---,0.00,VWS V14.01,2013-04-04 17:03:00,
2013-04-04 13:08:00,47.8,29.6,30.25,NE,46,4.0,9.0,49,0.00,,---,0.00,VWS V14.01,2013-04-04 17:08:00,
2013-04-04 13:13:00,48.0,30.3,30.24,East,92,2.0,9.0,50,0.00,,---,0.00,VWS V14.01,2013-04-04 17:13:00,
2013-04-04 13:18:00,48.0,29.8,30.23,East,95,2.0,9.0,49,0.00,,---,0.00,VWS V14.01,2013-04-04 17:18:00,
2013-04-04 13:23:00,47.9,29.7,30.23,ENE,68,2.0,9.0,49,0.00,,---,0.00,VWS V14.01,2013-04-04 17:23:00,
2013-04-04 13:28:00,48.0,29.8,30.23,East,81,2.0,9.0,49,0.00,,---,0.00,VWS V14.01,2013-04-04 17:28:00,
2013-04-04 13:30:00,48.0,29.8,30.23,ENE,70,3.0,9.0,49,0.00,,---,0.00,VWS V14.01,2013-04-04 17:30:00,
2013-04-04 13:33:00,48.0,29.3,30.23,ENE,78,3.0,8.0,48,0.00,,---,0.00,VWS V14.01,2013-04-04 17:33:00,
2013-04-04 13:38:00,48.2,32.3,30.22,East,82,4.0,8.0,54,0.00,,---,0.00,VWS V14.01,2013-04-04 17:38:00,
2013-04-04 13:44:00,47.8,31.0,30.22,East,89,2.0,8.0,52,0.00,,---,0.00,VWS V14.01,2013-04-04 17:44:00,
2013-04-04 13:49:00,47.4,32.5,30.22,East,89,3.0,8.0,56,0.00,,---,0.00,VWS V14.01,2013-04-04 17:49:00,
2013-04-04 13:54:00,46.9,32.9,30.22,NE,51,2.0,8.0,58,0.00,,---,0.00,VWS V14.01,2013-04-04 17:54:00,
2013-04-04 13:59:00,46.6,33.9,30.22,ENE,73,1.0,8.0,61,0.00,,---,0.00,VWS V14.01,2013-04-04 17:59:00,
2013-04-04 14:00:00,46.6,33.9,30.22,East,90,2.0,8.0,61,0.00,,---,0.00,VWS V14.01,2013-04-04 18:00:00,
2013-04-04 14:04:00,46.5,33.8,30.22,East,86,0.0,3.0,61,0.00,,---,0.00,VWS V14.01,2013-04-04 18:04:00,
2013-04-04 14:09:00,46.4,34.5,30.22,East,83,1.0,4.0,63,0.00,,---,0.00,VWS V14.01,2013-04-04 18:09:00,
2013-04-04 14:14:00,46.2,34.7,30.23,East,91,1.0,4.0,64,0.00,,---,0.00,VWS V14.01,2013-04-04 18:14:00,
2013-04-04 14:19:00,45.9,36.0,30.22,East,95,2.0,4.0,68,0.01,,---,0.01,VWS V14.01,2013-04-04 18:19:00,
2013-04-04 14:24:00,45.9,35.2,30.22,ENE,72,2.0,5.0,66,0.01,,---,0.01,VWS V14.01,2013-04-04 18:24:00,
2013-04-04 14:29:00,45.7,36.1,30.22,East,86,1.0,5.0,69,0.01,,---,0.01,VWS V14.01,2013-04-04 18:29:00,
2013-04-04 14:30:00,45.7,36.1,30.22,East,86,1.0,5.0,69,0.01,,---,0.01,VWS V14.01,2013-04-04 18:30:00,
2013-04-04 14:35:00,45.2,37.1,30.22,East,79,0.0,2.0,73,0.02,,---,0.02,VWS V14.01,2013-04-04 18:35:00,
2013-04-04 14:40:00,44.7,37.9,30.21,East,79,0.0,2.0,77,0.03,,---,0.03,VWS V14.01,2013-04-04 18:40:00,
2013-04-04 14:45:00,44.4,38.6,30.20,NNE,13,1.0,4.0,80,0.03,,---,0.03,VWS V14.01,2013-04-04 18:45:00,
2013-04-04 14:50:00,44.2,38.1,30.20,NE,46,1.0,4.0,79,0.03,,---,0.03,VWS V14.01,2013-04-04 18:50:00,
2013-04-04 14:55:00,44.0,38.2,30.20,NNE,21,1.0,4.0,80,0.03,,---,0.03,VWS V14.01,2013-04-04 18:55:00,
2013-04-04 15:00:00,43.9,38.1,30.20,NNE,23,0.0,0.0,80,0.03,,---,0.03,VWS V14.01,2013-04-04 19:00:00,
2013-04-04 15:05:00,43.9,38.5,30.20,NE,43,0.0,2.0,81,0.03,,---,0.03,VWS V14.01,2013-04-04 19:05:00,
2013-04-04 15:10:00,43.9,39.1,30.19,NE,36,2.0,2.0,83,0.03,,---,0.03,VWS V14.01,2013-04-04 19:10:00,
2013-04-04 15:15:00,43.7,39.2,30.18,NNE,12,0.0,4.0,84,0.03,,---,0.03,VWS V14.01,2013-04-04 19:15:00,
2013-04-04 15:20:00,43.6,39.4,30.18,ENE,64,3.0,5.0,85,0.04,,---,0.04,VWS V14.01,2013-04-04 19:20:00,
2013-04-04 15:25:00,43.2,39.0,30.17,NNE,27,4.0,5.0,85,0.05,,---,0.05,VWS V14.01,2013-04-04 19:25:00,
2013-04-04 15:30:00,42.9,39.0,30.17,NE,56,3.0,5.0,86,0.05,,---,0.06,VWS V14.01,2013-04-04 19:30:00,
2013-04-04 15:36:00,42.8,39.2,30.17,NE,46,2.0,7.0,87,0.06,,---,0.07,VWS V14.01,2013-04-04 19:36:00,
2013-04-04 15:41:00,42.7,39.4,30.16,North,3,2.0,7.0,88,0.07,,---,0.08,VWS V14.01,2013-04-04 19:41:00,
2013-04-04 15:46:00,42.5,39.5,30.16,NNE,33,2.0,7.0,89,0.08,,---,0.09,VWS V14.01,2013-04-04 19:46:00,
2013-04-04 15:51:00,42.4,39.4,30.16,NNE,30,3.0,10.0,89,0.09,,---,0.10,VWS V14.01,2013-04-04 19:51:00,
2013-04-04 15:56:00,42.2,39.2,30.16,NE,41,3.0,10.0,89,0.09,,---,0.10,VWS V14.01,2013-04-04 19:56:00,
2013-04-04 16:00:00,42.1,39.1,30.17,NE,49,3.0,10.0,89,0.10,,---,0.11,VWS V14.01,2013-04-04 20:00:00,
2013-04-04 16:01:00,42.0,39.0,30.17,NE,56,1.0,6.0,89,0.08,,---,0.11,VWS V14.01,2013-04-04 20:01:00,
2013-04-04 16:06:00,42.0,38.7,30.17,ENE,66,2.0,7.0,88,0.08,,---,0.11,VWS V14.01,2013-04-04 20:06:00,
2013-04-04 16:11:00,41.9,38.9,30.18,NNE,19,1.0,7.0,89,0.08,,---,0.11,VWS V14.01,2013-04-04 20:11:00,
2013-04-04 16:16:00,41.9,38.9,30.17,NNE,21,3.0,7.0,89,0.09,,---,0.12,VWS V14.01,2013-04-04 20:16:00,
2013-04-04 16:21:00,41.8,39.1,30.17,North,11,5.0,7.0,90,0.10,,---,0.13,VWS V14.01,2013-04-04 20:21:00,
2013-04-04 16:26:00,41.8,39.1,30.16,NE,39,2.0,7.0,90,0.11,,---,0.14,VWS V14.01,2013-04-04 20:26:00,
2013-04-04 16:30:00,41.7,39.0,30.16,ENE,71,2.0,8.0,90,0.11,,---,0.14,VWS V14.01,2013-04-04 20:30:00,
2013-04-04 16:32:00,41.7,39.0,30.16,NNE,26,4.0,6.0,90,0.09,,---,0.15,VWS V14.01,2013-04-04 20:32:00,
2013-04-04 16:37:00,41.7,39.0,30.16,ENE,61,2.0,6.0,90,0.09,,---,0.15,VWS V14.01,2013-04-04 20:37:00,
2013-04-04 16:42:00,41.6,39.2,30.17,NNE,31,3.0,7.0,91,0.09,,---,0.15,VWS V14.01,2013-04-04 20:42:00,
2013-04-04 16:47:00,41.6,38.9,30.16,East,91,3.0,7.0,90,0.09,,---,0.15,VWS V14.01,2013-04-04 20:47:00,
2013-04-04 16:52:00,41.4,39.0,30.16,East,91,1.0,8.0,91,0.09,,---,0.15,VWS V14.01,2013-04-04 20:52:00,
2013-04-04 16:57:00,41.3,38.9,30.16,NE,44,2.0,8.0,91,0.09,,---,0.15,VWS V14.01,2013-04-04 20:57:00,
2013-04-04 17:00:00,41.2,38.8,30.16,NE,44,1.0,8.0,91,0.09,,---,0.15,VWS V14.01,2013-04-04 21:00:00,
2013-04-04 17:02:00,41.2,38.8,30.15,NE,42,1.0,3.0,91,0.04,,---,0.15,VWS V14.01,2013-04-04 21:02:00,
2013-04-04 17:07:00,41.1,38.7,30.15,NE,34,1.0,11.0,91,0.04,,---,0.15,VWS V14.01,2013-04-04 21:07:00,
2013-04-04 17:12:00,41.1,38.7,30.14,NNW,347,4.0,11.0,91,0.04,,---,0.15,VWS V14.01,2013-04-04 21:12:00,
2013-04-04 17:17:00,41.0,38.6,30.14,ENE,75,1.0,11.0,91,0.05,,---,0.16,VWS V14.01,2013-04-04 21:17:00,
2013-04-04 17:22:00,41.0,38.9,30.14,ENE,73,2.0,11.0,92,0.05,,---,0.16,VWS V14.01,2013-04-04 21:22:00,
2013-04-04 17:28:00,40.9,38.8,30.14,ENE,70,4.0,11.0,92,0.05,,---,0.16,VWS V14.01,2013-04-04 21:28:00,
2013-04-04 17:30:00,40.8,38.4,30.13,East,95,2.0,11.0,91,0.05,,---,0.16,VWS V14.01,2013-04-04 21:30:00,
2013-04-04 17:33:00,40.7,38.3,30.13,East,82,3.0,9.0,91,0.02,,---,0.16,VWS V14.01,2013-04-04 21:33:00,
2013-04-04 17:38:00,40.7,38.6,30.12,NE,44,8.0,9.0,92,0.03,,---,0.17,VWS V14.01,2013-04-04 21:38:00,
2013-04-04 17:43:00,40.5,38.1,30.13,NE,49,7.0,9.0,91,0.03,,---,0.17,VWS V14.01,2013-04-04 21:43:00,
2013-04-04 17:48:00,40.5,38.4,30.12,NE,44,2.0,9.0,92,0.03,,---,0.17,VWS V14.01,2013-04-04 21:48:00,
2013-04-04 17:53:00,40.4,38.3,30.11,NE,39,8.0,13.0,92,0.03,,---,0.17,VWS V14.01,2013-04-04 21:53:00,
2013-04-04 17:58:00,40.2,38.1,30.12,NE,51,2.0,13.0,92,0.04,,---,0.18,VWS V14.01,2013-04-04 21:58:00,
2013-04-04 18:00:00,40.2,38.1,30.12,ENE,68,2.0,13.0,92,0.05,,---,0.19,VWS V14.01,2013-04-04 22:00:00,
2013-04-04 18:04:00,40.1,38.0,30.11,ENE,64,6.0,10.0,92,0.04,,---,0.19,VWS V14.01,2013-04-04 22:04:00,
2013-04-04 18:09:00,40.0,37.9,30.10,NNW,343,7.0,13.0,92,0.04,,---,0.19,VWS V14.01,2013-04-04 22:09:00,
2013-04-04 18:14:00,40.0,37.9,30.11,ENE,60,1.0,13.0,92,0.05,,---,0.20,VWS V14.01,2013-04-04 22:14:00,
2013-04-04 18:19:00,39.9,37.8,30.10,East,87,4.0,13.0,92,0.06,,---,0.21,VWS V14.01,2013-04-04 22:19:00,
2013-04-04 18:24:00,39.9,37.8,30.10,East,93,4.0,13.0,92,0.07,,---,0.22,VWS V14.01,2013-04-04 22:24:00,
2013-04-04 18:29:00,39.9,38.0,30.10,NNE,23,5.0,13.0,93,0.07,,---,0.22,VWS V14.01,2013-04-04 22:29:00,
2013-04-04 18:30:00,39.9,38.0,30.10,NE,41,0.0,13.0,93,0.07,,---,0.22,VWS V14.01,2013-04-04 22:30:00,
2013-04-04 18:34:00,39.9,38.0,30.10,NE,54,0.0,14.0,93,0.06,,---,0.22,VWS V14.01,2013-04-04 22:34:00,
2013-04-04 18:39:00,39.9,38.0,30.09,NE,52,1.0,14.0,93,0.06,,---,0.22,VWS V14.01,2013-04-04 22:39:00,
2013-04-04 18:45:00,39.9,38.0,30.09,NE,54,3.0,15.0,93,0.06,,---,0.22,VWS V14.01,2013-04-04 22:45:00,
2013-04-04 18:50:00,39.9,38.0,30.08,East,87,1.0,15.0,93,0.06,,---,0.22,VWS V14.01,2013-04-04 22:50:00,
2013-04-04 18:55:00,39.8,38.0,30.07,ENE,78,3.0,15.0,93,0.06,,---,0.22,VWS V14.01,2013-04-04 22:55:00,
2013-04-04 19:00:00,39.8,38.2,30.07,ENE,65,2.0,15.0,94,0.06,,---,0.22,VWS V14.01,2013-04-04 23:00:00,
2013-04-04 19:05:00,39.8,38.2,30.07,NE,40,2.0,9.0,94,0.03,,---,0.22,VWS V14.01,2013-04-04 23:05:00,
2013-04-04 19:10:00,39.8,38.2,30.07,East,101,3.0,9.0,94,0.03,,---,0.22,VWS V14.01,2013-04-04 23:10:00,
2013-04-04 19:15:00,39.9,38.3,30.06,NE,56,2.0,9.0,94,0.03,,---,0.22,VWS V14.01,2013-04-04 23:15:00,
2013-04-04 19:20:00,39.9,38.3,30.05,ENE,68,2.0,10.0,94,0.03,,---,0.22,VWS V14.01,2013-04-04 23:20:00,
2013-04-04 19:25:00,39.9,38.3,30.05,East,82,2.0,10.0,94,0.03,,---,0.22,VWS V14.01,2013-04-04 23:25:00,
2013-04-04 19:30:00,39.9,38.3,30.04,ENE,68,4.0,6.0,94,0.00,,---,0.22,VWS V14.01,2013-04-04 23:30:00,
2013-04-04 19:35:00,39.9,38.3,30.03,East,85,3.0,6.0,94,0.00,,---,0.22,VWS V14.01,2013-04-04 23:35:00,
2013-04-04 19:40:00,39.9,38.3,30.03,East,91,4.0,7.0,94,0.00,,---,0.22,VWS V14.01,2013-04-04 23:40:00,
2013-04-04 19:45:00,39.9,38.3,30.02,East,79,2.0,7.0,94,0.00,,---,0.22,VWS V14.01,2013-04-04 23:45:00,
2013-04-04 19:50:00,39.9,38.3,30.03,NE,46,3.0,10.0,94,0.00,,---,0.22,VWS V14.01,2013-04-04 23:50:00,
2013-04-04 19:56:00,39.9,38.3,30.03,ENE,70,6.0,10.0,94,0.00,,---,0.22,VWS V14.01,2013-04-04 23:56:00,
2013-04-04 20:00:00,40.0,38.4,30.03,ENE,75,3.0,10.0,94,0.00,,---,0.22,VWS V14.01,2013-04-05 00:00:00,
2013-04-04 20:01:00,40.0,38.4,30.03,NE,39,3.0,5.0,94,0.00,,---,0.22,VWS V14.01,2013-04-05 00:01:00,
2013-04-04 20:06:00,40.0,38.4,30.03,NE,53,2.0,8.0,94,0.00,,---,0.22,VWS V14.01,2013-04-05 00:06:00,
2013-04-04 20:11:00,40.0,38.4,30.04,East,101,1.0,8.0,94,0.00,,---,0.22,VWS V14.01,2013-04-05 00:11:00,
2013-04-04 20:16:00,40.1,38.5,30.03,NNE,29,4.0,8.0,94,0.00,,---,0.22,VWS V14.01,2013-04-05 00:16:00,
2013-04-04 20:21:00,40.1,38.5,30.03,NNE,31,7.0,9.0,94,0.00,,---,0.22,VWS V14.01,2013-04-05 00:21:00,
2013-04-04 20:26:00,40.1,38.5,30.04,ENE,60,4.0,11.0,94,0.00,,---,0.22,VWS V14.01,2013-04-05 00:26:00,
2013-04-04 20:30:00,40.1,38.5,30.04,East,86,2.0,11.0,94,0.01,,---,0.23,VWS V14.01,2013-04-05 00:30:00,
2013-04-04 20:31:00,40.1,38.5,30.03,NE,41,2.0,4.0,94,0.01,,---,0.23,VWS V14.01,2013-04-05 00:31:00,
2013-04-04 20:36:00,40.0,38.4,30.02,ENE,68,3.0,7.0,94,0.02,,---,0.24,VWS V14.01,2013-04-05 00:36:00,
2013-04-04 20:41:00,40.0,38.4,30.01,NNE,23,3.0,7.0,94,0.04,,---,0.26,VWS V14.01,2013-04-05 00:41:00,
2013-04-04 20:46:00,40.0,38.7,30.00,NE,44,5.0,7.0,95,0.05,,---,0.27,VWS V14.01,2013-04-05 00:46:00,
2013-04-04 20:51:00,39.9,38.6,30.00,NE,51,3.0,13.0,95,0.06,,---,0.28,VWS V14.01,2013-04-05 00:51:00,
2013-04-04 20:57:00,40.0,38.7,30.00,NE,43,2.0,13.0,95,0.07,,---,0.29,VWS V14.01,2013-04-05 00:57:00,
2013-04-04 21:00:00,40.0,38.7,30.01,NE,51,1.0,13.0,95,0.08,,---,0.30,VWS V14.01,2013-04-05 01:00:00,
2013-04-04 21:02:00,40.0,38.7,30.00,NE,51,2.0,5.0,95,0.09,,---,0.31,VWS V14.01,2013-04-05 01:02:00,
2013-04-04 21:07:00,39.9,38.6,30.00,ENE,72,3.0,8.0,95,0.11,,---,0.33,VWS V14.01,2013-04-05 01:07:00,
2013-04-04 21:12:00,39.9,38.6,29.99,North,358,1.0,9.0,95,0.14,,---,0.36,VWS V14.01,2013-04-05 01:12:00,
2013-04-04 21:17:00,39.8,38.5,29.99,NW,309,0.0,9.0,95,0.15,,---,0.37,VWS V14.01,2013-04-05 01:17:00,
2013-04-04 21:23:00,39.7,38.4,30.00,NE,51,6.0,12.0,95,0.16,,---,0.38,VWS V14.01,2013-04-05 01:23:00,
2013-04-04 21:28:00,39.6,38.3,30.00,ESE,121,1.0,12.0,95,0.17,,---,0.39,VWS V14.01,2013-04-05 01:28:00,
2013-04-04 21:30:00,39.6,38.3,30.00,NNE,25,3.0,12.0,95,0.18,,---,0.40,VWS V14.01,2013-04-05 01:30:00,
2013-04-04 21:33:00,39.6,38.3,30.00,ENE,60,4.0,10.0,95,0.18,,---,0.41,VWS V14.01,2013-04-05 01:33:00,
2013-04-04 21:38:00,39.4,38.1,29.99,NE,46,6.0,10.0,95,0.20,,---,0.43,VWS V14.01,2013-04-05 01:38:00,
2013-04-04 21:43:00,39.4,38.1,29.98,ENE,65,2.0,10.0,95,0.20,,---,0.43,VWS V14.01,2013-04-05 01:43:00,
2013-04-04 21:48:00,39.4,38.1,29.98,NNE,16,4.0,10.0,95,0.21,,---,0.44,VWS V14.01,2013-04-05 01:48:00,
2013-04-04 21:53:00,39.3,38.0,29.99,NNW,335,2.0,10.0,95,0.22,,---,0.45,VWS V14.01,2013-04-05 01:53:00,
2013-04-04 21:58:00,39.3,38.0,29.98,North,9,1.0,10.0,95,0.23,,---,0.46,VWS V14.01,2013-04-05 01:58:00,
2013-04-04 22:00:00,39.4,38.1,29.98,NNE,18,2.0,10.0,95,0.23,,---,0.46,VWS V14.01,2013-04-05 02:00:00,
2013-04-04 22:04:00,39.3,38.0,29.98,NNE,15,5.0,8.0,95,0.17,,---,0.47,VWS V14.01,2013-04-05 02:04:00,
2013-04-04 22:09:00,39.3,38.0,29.97,NNW,338,4.0,8.0,95,0.17,,---,0.47,VWS V14.01,2013-04-05 02:09:00,
2013-04-04 22:14:00,39.2,37.9,29.97,North,1,5.0,11.0,95,0.18,,---,0.48,VWS V14.01,2013-04-05 02:14:00,
2013-04-04 22:19:00,39.2,37.9,29.97,NE,40,1.0,11.0,95,0.19,,---,0.49,VWS V14.01,2013-04-05 02:19:00,
2013-04-04 22:24:00,39.2,37.9,29.96,NE,49,2.0,11.0,95,0.19,,---,0.49,VWS V14.01,2013-04-05 02:24:00,
2013-04-04 22:29:00,39.2,37.9,29.96,NW,326,1.0,11.0,95,0.19,,---,0.49,VWS V14.01,2013-04-05 02:29:00,
2013-04-04 22:30:00,39.2,37.9,29.96,NE,36,2.0,11.0,95,0.19,,---,0.49,VWS V14.01,2013-04-05 02:30:00,
2013-04-04 22:34:00,39.2,37.9,29.96,NNE,26,6.0,13.0,95,0.10,,---,0.50,VWS V14.01,2013-04-05 02:34:00,
2013-04-04 22:39:00,39.3,38.0,29.95,NE,56,1.0,13.0,95,0.10,,---,0.50,VWS V14.01,2013-04-05 02:39:00,
2013-04-04 22:45:00,39.3,38.0,29.95,NE,51,9.0,13.0,95,0.10,,---,0.50,VWS V14.01,2013-04-05 02:45:00,
2013-04-04 22:50:00,39.3,38.0,29.94,NE,49,5.0,13.0,95,0.10,,---,0.50,VWS V14.01,2013-04-05 02:50:00,
2013-04-04 22:55:00,39.3,38.0,29.94,NE,44,5.0,13.0,95,0.10,,---,0.50,VWS V14.01,2013-04-05 02:55:00,
2013-04-04 23:00:00,39.3,38.0,29.94,NE,40,3.0,13.0,95,0.10,,---,0.50,VWS V14.01,2013-04-05 03:00:00,
2013-04-04 23:05:00,39.3,38.0,29.94,ENE,65,4.0,9.0,95,0.04,,---,0.50,VWS V14.01,2013-04-05 03:05:00,
2013-04-04 23:10:00,39.3,38.0,29.93,NE,40,4.0,9.0,95,0.04,,---,0.50,VWS V14.01,2013-04-05 03:10:00,
2013-04-04 23:15:00,39.4,38.1,29.93,NNW,346,1.0,9.0,95,0.04,,---,0.50,VWS V14.01,2013-04-05 03:15:00,
2013-04-04 23:20:00,39.4,38.1,29.93,ENE,64,2.0,9.0,95,0.04,,---,0.50,VWS V14.01,2013-04-05 03:20:00,
2013-04-04 23:25:00,39.5,38.2,29.93,NNE,31,6.0,9.0,95,0.04,,---,0.50,VWS V14.01,2013-04-05 03:25:00,
2013-04-04 23:30:00,39.5,38.2,29.93,ENE,70,4.0,5.0,95,0.01,,---,0.50,VWS V14.01,2013-04-05 03:30:00,
2013-04-04 23:36:00,39.6,38.3,29.93,North,1,4.0,7.0,95,0.01,,---,0.50,VWS V14.01,2013-04-05 03:36:00,
2013-04-04 23:41:00,39.5,38.2,29.92,NE,42,4.0,11.0,95,0.01,,---,0.50,VWS V14.01,2013-04-05 03:41:00,
2013-04-04 23:46:00,39.5,38.2,29.92,NE,46,1.0,11.0,95,0.01,,---,0.50,VWS V14.01,2013-04-05 03:46:00,
2013-04-04 23:52:00,39.5,38.2,29.92,NE,43,3.0,11.0,95,0.01,,---,0.50,VWS V14.01,2013-04-05 03:52:00,
2013-04-04 23:57:00,39.5,38.2,29.91,NE,42,2.0,11.0,95,0.01,,---,0.50,VWS V14.01,2013-04-05 03:57:00,